createdAt,value
2018-09-19T00:00:44.336Z,4.60
2018-09-19T00:01:44.342Z,4.80
2018-09-19T00:02:44.350Z,4.90
2018-09-19T00:03:44.312Z,4.80
2018-09-19T00:04:44.302Z,4.80
2018-09-19T00:05:44.297Z,4.70
2018-09-19T00:06:44.271Z,4.80
2018-09-19T00:07:44.278Z,4.90
2018-09-19T00:08:44.295Z,4.40
2018-09-19T00:09:44.240Z,4.80
2018-09-19T00:10:44.238Z,4.90
2018-09-19T00:11:44.238Z,4.70
2018-09-19T00:12:44.245Z,4.60
2018-09-19T00:13:44.196Z,4.80
2018-09-19T00:14:44.250Z,4.80
2018-09-19T00:15:44.195Z,4.90
2018-09-19T00:16:44.190Z,4.60
2018-09-19T00:17:44.151Z,4.50
2018-09-19T00:18:44.140Z,4.90
2018-09-19T00:19:44.127Z,5.10
2018-09-19T00:20:44.156Z,5.10
2018-09-19T00:21:44.103Z,5.00
2018-09-19T00:22:44.099Z,5.10
2018-09-19T00:23:44.080Z,4.80
2018-09-19T00:24:44.068Z,5.00
2018-09-19T00:25:44.093Z,4.50
2018-09-19T00:26:44.049Z,4.70
2018-09-19T00:27:44.080Z,4.70
2018-09-19T00:28:44.043Z,4.50
2018-09-19T00:29:44.017Z,4.60
2018-09-19T00:30:44.004Z,4.60
2018-09-19T00:31:44.016Z,5.00
2018-09-19T00:32:44.022Z,4.80
2018-09-19T00:33:44.032Z,4.40
2018-09-19T00:34:43.959Z,4.10
2018-09-19T00:35:43.950Z,4.50
2018-09-19T00:36:43.937Z,4.80
2018-09-19T00:37:43.949Z,4.50
2018-09-19T00:38:43.939Z,4.60
2018-09-19T00:39:43.929Z,4.80
2018-09-19T00:40:43.928Z,4.60
2018-09-19T00:41:43.884Z,5.20
2018-09-19T00:42:43.880Z,4.70
2018-09-19T00:43:43.861Z,4.50
2018-09-19T00:44:43.877Z,4.90
2018-09-19T00:45:43.873Z,4.60
2018-09-19T00:46:43.829Z,4.50
2018-09-19T00:47:43.813Z,4.60
2018-09-19T00:48:43.820Z,4.50
2018-09-19T00:49:43.795Z,4.50
2018-09-19T00:50:43.807Z,4.10
2018-09-19T00:51:43.785Z,4.90
2018-09-19T00:52:43.793Z,4.80
2018-09-19T00:53:43.752Z,4.70
2018-09-19T00:54:43.736Z,4.90
2018-09-19T00:55:43.725Z,4.50
2018-09-19T00:56:43.726Z,4.60
2018-09-19T00:57:43.740Z,5.30
2018-09-19T00:58:43.722Z,4.40
2018-09-19T00:59:43.680Z,5.20
2018-09-19T01:00:43.670Z,4.80
2018-09-19T01:01:43.660Z,5.10
2018-09-19T01:02:43.693Z,4.70
2018-09-19T01:03:43.653Z,4.70
2018-09-19T01:04:43.623Z,4.70
2018-09-19T01:05:43.616Z,4.80
2018-09-19T01:06:43.602Z,4.50
2018-09-19T01:07:43.613Z,4.30
2018-09-19T01:08:43.586Z,4.60
2018-09-19T01:09:43.606Z,4.50
2018-09-19T01:10:43.600Z,4.90
2018-09-19T01:11:43.552Z,4.90
2018-09-19T01:12:43.534Z,4.70
2018-09-19T01:13:43.530Z,4.20
2018-09-19T01:14:43.539Z,4.70
2018-09-19T01:15:43.509Z,4.60
2018-09-19T01:16:43.511Z,5.30
2018-09-19T01:17:43.482Z,4.50
2018-09-19T01:18:43.473Z,4.70
2018-09-19T01:19:43.457Z,4.20
2018-09-19T01:20:43.446Z,4.60
2018-09-19T01:21:43.474Z,4.70
2018-09-19T01:22:43.456Z,4.30
2018-09-19T01:23:43.415Z,4.20
2018-09-19T01:24:43.455Z,4.20
2018-09-19T01:25:43.422Z,4.10
2018-09-19T01:26:43.390Z,4.40
2018-09-19T01:27:43.373Z,4.40
2018-09-19T01:28:43.362Z,4.30
2018-09-19T01:29:43.352Z,4.50
2018-09-19T01:30:43.372Z,4.90
2018-09-19T01:31:43.324Z,4.70
2018-09-19T01:32:43.314Z,4.70
2018-09-19T01:33:43.301Z,4.40
2018-09-19T01:34:43.290Z,4.30
2018-09-19T01:35:43.307Z,4.40
2018-09-19T01:36:43.281Z,4.50
2018-09-19T01:37:43.269Z,4.40
2018-09-19T01:38:43.244Z,4.50
2018-09-19T01:39:43.233Z,4.60
2018-09-19T01:40:43.244Z,4.00
2018-09-19T01:41:43.247Z,4.60
2018-09-19T01:42:43.202Z,4.50
2018-09-19T01:43:43.205Z,4.30
2018-09-19T01:44:43.185Z,4.60
2018-09-19T01:45:43.188Z,4.40
2018-09-19T01:46:43.190Z,4.50
2018-09-19T01:47:43.148Z,4.30
2018-09-19T01:48:43.143Z,4.60
2018-09-19T01:49:43.124Z,4.60
2018-09-19T01:50:43.113Z,4.50
2018-09-19T01:51:43.128Z,4.80
2018-09-19T01:52:43.097Z,4.30
2018-09-19T01:53:43.079Z,4.20
2018-09-19T01:54:43.078Z,5.00
2018-09-19T01:55:43.069Z,4.60
2018-09-19T01:56:43.078Z,4.10
2018-09-19T01:57:43.037Z,4.00
2018-09-19T01:58:43.023Z,4.70
2018-09-19T01:59:43.043Z,4.70
2018-09-19T02:00:43.009Z,4.80
2018-09-19T02:01:43.010Z,4.00
2018-09-19T02:02:43.025Z,4.20
2018-09-19T02:03:42.967Z,4.30
2018-09-19T02:04:42.962Z,5.00
2018-09-19T02:05:42.969Z,4.40
2018-09-19T02:06:42.950Z,4.30
2018-09-19T02:07:42.923Z,3.80
2018-09-19T02:08:42.924Z,4.50
2018-09-19T02:09:42.899Z,4.50
2018-09-19T02:10:42.909Z,4.40
2018-09-19T02:11:42.887Z,4.70
2018-09-19T02:12:42.882Z,4.20
2018-09-19T02:13:42.856Z,3.90
2018-09-19T02:14:42.843Z,4.70
2018-09-19T02:15:42.852Z,4.40
2018-09-19T02:16:42.821Z,4.50
2018-09-19T02:17:42.819Z,4.10
2018-09-19T02:18:42.819Z,3.90
2018-09-19T02:19:42.790Z,4.10
2018-09-19T02:20:42.805Z,5.00
2018-09-19T02:21:42.767Z,4.40
2018-09-19T02:22:42.756Z,4.10
2018-09-19T02:23:42.759Z,4.20
2018-09-19T02:24:42.753Z,4.30
2018-09-19T02:25:42.746Z,4.30
2018-09-19T02:26:42.711Z,4.30
2018-09-19T02:27:42.706Z,4.40
2018-09-19T02:28:42.786Z,4.50
2018-09-19T02:29:42.682Z,4.20
2018-09-19T02:30:42.698Z,4.50
2018-09-19T02:31:42.659Z,4.60
2018-09-19T02:32:42.644Z,4.10
2018-09-19T02:33:42.636Z,4.30
2018-09-19T02:34:42.638Z,4.20
2018-09-19T02:35:42.637Z,4.30
2018-09-19T02:36:42.640Z,4.20
2018-09-19T02:37:42.599Z,4.50
2018-09-19T02:38:42.580Z,4.50
2018-09-19T02:39:42.564Z,4.90
2018-09-19T02:40:42.572Z,4.20
2018-09-19T02:41:42.618Z,4.20
2018-09-19T02:42:42.579Z,4.40
2018-09-19T02:43:42.575Z,4.40
2018-09-19T02:44:42.515Z,4.50
2018-09-19T02:45:42.500Z,4.40
2018-09-19T02:46:42.518Z,4.60
2018-09-19T02:47:42.503Z,4.40
2018-09-19T02:48:42.466Z,4.20
2018-09-19T02:49:42.455Z,4.50
2018-09-19T02:50:42.449Z,4.40
2018-09-19T02:51:42.454Z,4.40
2018-09-19T02:52:42.437Z,4.80
2018-09-19T02:53:42.466Z,4.10
2018-09-19T02:54:42.401Z,4.70
2018-09-19T02:55:42.388Z,4.50
2018-09-19T02:56:51.637Z,4.40
2018-09-19T02:57:50.333Z,4.50
2018-09-19T02:58:49.903Z,4.40
2018-09-19T02:59:42.347Z,4.60
2018-09-19T03:00:42.333Z,4.20
2018-09-19T03:01:42.342Z,4.20
2018-09-19T03:02:42.312Z,4.30
2018-09-19T03:03:42.327Z,4.20
2018-09-19T03:05:42.277Z,4.20
2018-09-19T03:06:42.272Z,4.30
2018-09-19T03:07:42.297Z,4.50
2018-09-19T03:08:42.248Z,4.00
2018-09-19T03:09:42.234Z,4.00
2018-09-19T03:10:42.243Z,4.00
2018-09-19T03:11:42.216Z,4.10
2018-09-19T03:12:42.222Z,3.90
2018-09-19T03:13:42.188Z,4.50
2018-09-19T03:14:42.191Z,4.20
2018-09-19T03:15:42.170Z,4.00
2018-09-19T03:16:42.162Z,4.30
2018-09-19T03:17:42.314Z,4.30
2018-09-19T03:18:42.139Z,4.50
2018-09-19T03:19:42.123Z,4.60
2018-09-19T03:20:42.120Z,4.30
2018-09-19T03:21:42.104Z,4.00
2018-09-19T03:22:42.120Z,4.20
2018-09-19T03:23:42.084Z,4.20
2018-09-19T03:24:42.077Z,4.00
2018-09-19T03:25:42.085Z,3.80
2018-09-19T03:26:42.047Z,3.90
2018-09-19T03:27:42.051Z,4.20
2018-09-19T03:28:42.063Z,4.40
2018-09-19T03:29:42.040Z,4.00
2018-09-19T03:30:42.001Z,4.00
2018-09-19T03:31:41.992Z,4.30
2018-09-19T03:32:41.989Z,4.30
2018-09-19T03:33:41.994Z,4.10
2018-09-19T03:34:41.996Z,4.20
2018-09-19T03:35:41.951Z,4.60
2018-09-19T03:36:41.974Z,4.60
2018-09-19T03:37:42.050Z,4.10
2018-09-19T03:38:41.924Z,4.30
2018-09-19T03:39:41.900Z,4.70
2018-09-19T03:40:41.891Z,4.60
2018-09-19T03:41:41.877Z,4.30
2018-09-19T03:42:41.911Z,5.00
2018-09-19T03:43:41.858Z,4.40
2018-09-19T03:44:41.852Z,4.30
2018-09-19T03:45:41.835Z,4.30
2018-09-19T03:46:41.822Z,4.30
2018-09-19T03:47:41.847Z,4.00
2018-09-19T03:48:41.824Z,4.60
2018-09-19T03:49:41.792Z,4.50
2018-09-19T03:50:41.793Z,4.70
2018-09-19T03:51:41.777Z,4.40
2018-09-19T03:52:41.779Z,5.00
2018-09-19T03:53:41.767Z,4.50
2018-09-19T03:54:41.751Z,4.90
2018-09-19T03:55:41.733Z,4.70
2018-09-19T03:56:41.736Z,4.70
2018-09-19T03:57:41.699Z,4.40
2018-09-19T03:58:41.711Z,3.90
2018-09-19T03:59:41.684Z,4.30
2018-09-19T04:00:41.675Z,4.30
2018-09-19T04:01:41.674Z,4.60
2018-09-19T04:02:41.681Z,4.40
2018-09-19T04:03:41.644Z,4.20
2018-09-19T04:04:41.622Z,4.60
2018-09-19T04:05:41.613Z,4.70
2018-09-19T04:06:41.605Z,4.20
2018-09-19T04:07:41.623Z,4.30
2018-09-19T04:08:41.584Z,4.30
2018-09-19T04:09:41.590Z,4.30
2018-09-19T04:10:41.556Z,4.60
2018-09-19T04:11:41.554Z,4.20
2018-09-19T04:12:41.538Z,4.40
2018-09-19T04:13:41.546Z,4.50
2018-09-19T04:14:41.557Z,4.40
2018-09-19T04:15:41.506Z,4.60
2018-09-19T04:16:41.494Z,4.40
2018-09-19T04:17:41.571Z,4.50
2018-09-19T04:18:41.483Z,4.70
2018-09-19T04:19:41.464Z,4.30
2018-09-19T04:20:41.445Z,4.80
2018-09-19T04:21:41.440Z,4.90
2018-09-19T04:22:41.447Z,5.00
2018-09-19T04:23:41.437Z,4.60
2018-09-19T04:24:41.413Z,5.20
2018-09-19T04:25:41.397Z,4.70
2018-09-19T04:26:41.385Z,5.10
2018-09-19T04:27:41.377Z,4.60
2018-09-19T04:28:41.385Z,4.40
2018-09-19T04:29:41.350Z,4.50
2018-09-19T04:30:41.345Z,5.00
2018-09-19T04:31:41.325Z,4.50
2018-09-19T04:32:41.318Z,4.40
2018-09-19T04:33:41.324Z,4.80
2018-09-19T04:34:41.301Z,4.30
2018-09-19T04:35:41.284Z,4.50
2018-09-19T04:36:41.308Z,4.60
2018-09-19T04:37:41.263Z,4.40
2018-09-19T04:38:41.248Z,4.70
2018-09-19T04:39:41.245Z,4.60
2018-09-19T04:40:41.225Z,4.50
2018-09-19T04:41:41.236Z,4.90
2018-09-19T04:42:41.218Z,4.60
2018-09-19T04:43:41.194Z,4.60
2018-09-19T04:44:41.186Z,4.60
2018-09-19T04:45:41.172Z,4.50
2018-09-19T04:46:41.185Z,4.80
2018-09-19T04:47:41.152Z,4.90
2018-09-19T04:48:41.149Z,4.60
2018-09-19T04:49:41.188Z,4.70
2018-09-19T04:50:41.116Z,4.60
2018-09-19T04:51:41.131Z,4.60
2018-09-19T04:52:41.123Z,4.70
2018-09-19T04:53:41.090Z,4.40
2018-09-19T04:54:41.072Z,4.80
2018-09-19T04:55:41.103Z,4.70
2018-09-19T04:56:41.049Z,4.90
2018-09-19T04:57:41.043Z,4.50
2018-09-19T04:58:41.040Z,4.60
2018-09-19T04:59:41.026Z,4.70
2018-09-19T05:00:41.035Z,4.90
2018-09-19T05:01:40.998Z,4.80
2018-09-19T05:02:40.981Z,4.50
2018-09-19T05:03:41.011Z,5.10
2018-09-19T05:04:40.961Z,4.80
2018-09-19T05:05:41.047Z,4.80
2018-09-19T05:06:40.941Z,5.10
2018-09-19T05:07:40.928Z,5.00
2018-09-19T05:08:40.940Z,5.10
2018-09-19T05:09:40.914Z,4.60
2018-09-19T05:10:40.932Z,4.90
2018-09-19T05:11:40.890Z,4.90
2018-09-19T05:12:40.876Z,5.00
2018-09-19T05:13:40.863Z,4.80
2018-09-19T05:14:40.852Z,5.00
2018-09-19T05:15:40.862Z,5.00
2018-09-19T05:16:40.829Z,5.30
2018-09-19T05:17:40.851Z,5.20
2018-09-19T05:18:40.808Z,5.00
2018-09-19T05:19:40.794Z,4.80
2018-09-19T05:20:40.788Z,4.80
2018-09-19T05:21:40.770Z,4.90
2018-09-19T05:22:40.790Z,4.70
2018-09-19T05:23:40.771Z,4.70
2018-09-19T05:24:40.740Z,5.10
2018-09-19T05:25:40.750Z,5.10
2018-09-19T05:26:40.715Z,4.90
2018-09-19T05:27:40.729Z,4.60
2018-09-19T05:28:40.703Z,5.40
2018-09-19T05:29:40.702Z,4.70
2018-09-19T05:30:40.710Z,4.90
2018-09-19T05:31:40.705Z,4.80
2018-09-19T05:32:40.678Z,4.80
2018-09-19T05:33:40.639Z,4.80
2018-09-19T05:34:40.633Z,4.70
2018-09-19T05:35:40.649Z,4.70
2018-09-19T05:36:40.610Z,5.40
2018-09-19T05:37:40.614Z,4.90
2018-09-19T05:38:40.585Z,5.10
2018-09-19T05:39:40.576Z,4.80
2018-09-19T05:40:40.585Z,4.90
2018-09-19T05:41:40.576Z,4.90
2018-09-19T05:42:40.560Z,5.40
2018-09-19T05:43:40.534Z,4.70
2018-09-19T05:44:40.525Z,5.10
2018-09-19T05:45:40.513Z,5.00
2018-09-19T05:46:40.526Z,5.10
2018-09-19T05:47:40.484Z,4.90
2018-09-19T05:48:40.489Z,5.10
2018-09-19T05:49:40.461Z,5.60
2018-09-19T05:50:40.451Z,5.10
2018-09-19T05:51:40.477Z,4.70
2018-09-19T05:52:40.451Z,5.60
2018-09-19T05:53:40.451Z,4.80
2018-09-19T05:54:40.493Z,4.90
2018-09-19T05:55:40.396Z,4.80
2018-09-19T05:56:40.384Z,5.00
2018-09-19T05:57:40.382Z,4.60
2018-09-19T05:58:40.384Z,4.60
2018-09-19T05:59:40.351Z,5.80
2018-09-19T06:00:40.343Z,5.40
2018-09-19T06:01:40.329Z,4.70
2018-09-19T06:02:40.320Z,5.10
2018-09-19T06:03:40.343Z,5.30
2018-09-19T06:04:40.325Z,5.20
2018-09-19T06:05:40.284Z,4.80
2018-09-19T06:06:40.276Z,4.90
2018-09-19T06:07:40.264Z,5.50
2018-09-19T06:08:40.359Z,5.30
2018-09-19T06:09:40.253Z,5.20
2018-09-19T06:10:40.228Z,5.40
2018-09-19T06:11:40.217Z,5.10
2018-09-19T06:12:40.257Z,5.20
2018-09-19T06:13:40.230Z,5.40
2018-09-19T06:14:40.204Z,5.50
2018-09-19T06:15:40.195Z,5.70
2018-09-19T06:16:40.162Z,4.70
2018-09-19T06:17:40.151Z,5.40
2018-09-19T06:18:40.163Z,4.70
2018-09-19T06:19:40.132Z,4.90
2018-09-19T06:20:40.138Z,5.60
2018-09-19T06:21:40.135Z,6.00
2018-09-19T06:22:40.136Z,5.20
2018-09-19T06:23:40.091Z,4.80
2018-09-19T06:24:40.102Z,5.40
2018-09-19T06:25:47.154Z,4.90
2018-09-19T06:26:40.065Z,5.60
2018-09-19T06:27:40.074Z,5.00
2018-09-19T06:28:40.030Z,5.10
2018-09-19T06:29:47.984Z,5.60
2018-09-19T06:30:40.037Z,5.60
2018-09-19T06:31:40.014Z,5.10
2018-09-19T06:32:39.993Z,5.30
2018-09-19T06:33:39.974Z,5.30
2018-09-19T06:34:39.965Z,5.10
2018-09-19T06:35:40.012Z,4.90
2018-09-19T06:36:39.940Z,5.00
2018-09-19T06:37:39.934Z,5.50
2018-09-19T06:38:39.939Z,5.20
2018-09-19T06:39:39.907Z,5.40
2018-09-19T06:40:40.039Z,5.00
2018-09-19T06:41:39.893Z,4.60
2018-09-19T06:42:39.896Z,5.60
2018-09-19T06:43:39.882Z,5.30
2018-09-19T06:44:39.874Z,5.20
2018-09-19T06:45:39.900Z,5.20
2018-09-19T06:46:39.859Z,5.00
2018-09-19T06:47:39.818Z,5.10
2018-09-19T06:48:39.806Z,5.80
2018-09-19T06:49:39.827Z,5.60
2018-09-19T06:50:39.805Z,6.80
2018-09-19T06:51:39.815Z,5.90
2018-09-19T06:52:39.765Z,5.50
2018-09-19T06:53:39.755Z,5.50
2018-09-19T06:54:39.794Z,5.30
2018-09-19T06:55:39.749Z,5.70
2018-09-19T06:56:39.747Z,6.00
2018-09-19T06:57:39.705Z,5.80
2018-09-19T06:58:39.699Z,6.60
2018-09-19T06:59:39.755Z,6.90
2018-09-19T07:00:39.676Z,6.30
2018-09-19T07:01:39.686Z,6.70
2018-09-19T07:02:39.690Z,6.40
2018-09-19T07:03:39.650Z,7.10
2018-09-19T07:04:39.633Z,6.60
2018-09-19T07:05:39.646Z,6.40
2018-09-19T07:06:39.615Z,6.40
2018-09-19T07:07:39.622Z,8.20
2018-09-19T07:08:39.582Z,7.60
2018-09-19T07:09:39.624Z,8.10
2018-09-19T07:10:39.750Z,7.80
2018-09-19T07:11:39.550Z,7.80
2018-09-19T07:12:39.547Z,8.40
2018-09-19T07:13:39.553Z,7.30
2018-09-19T07:14:39.518Z,7.10
2018-09-19T07:15:39.511Z,7.40
2018-09-19T07:16:39.496Z,7.20
2018-09-19T07:17:39.498Z,7.60
2018-09-19T07:18:39.496Z,8.10
2018-09-19T07:19:39.494Z,7.30
2018-09-19T07:20:39.450Z,7.20
2018-09-19T07:21:39.463Z,6.60
2018-09-19T07:22:39.428Z,6.40
2018-09-19T07:23:39.454Z,6.40
2018-09-19T07:24:39.418Z,6.10
2018-09-19T07:25:39.395Z,6.40
2018-09-19T07:26:39.408Z,6.20
2018-09-19T07:27:39.381Z,6.50
2018-09-19T07:28:39.365Z,6.00
2018-09-19T07:29:39.367Z,6.00
2018-09-19T07:30:39.343Z,5.60
2018-09-19T07:31:39.358Z,5.80
2018-09-19T07:32:39.340Z,6.40
2018-09-19T07:33:39.308Z,5.60
2018-09-19T07:34:39.299Z,5.90
2018-09-19T07:35:39.289Z,5.60
2018-09-19T07:36:39.284Z,5.30
2018-09-19T07:37:39.289Z,5.50
2018-09-19T07:38:39.253Z,6.00
2018-09-19T07:39:39.241Z,5.80
2018-09-19T07:40:39.230Z,6.00
2018-09-19T07:41:39.242Z,5.40
2018-09-19T07:42:39.232Z,5.50
2018-09-19T07:43:39.197Z,5.50
2018-09-19T07:44:39.185Z,5.70
2018-09-19T07:45:39.175Z,5.80
2018-09-19T07:46:39.195Z,5.40
2018-09-19T07:47:39.197Z,5.30
2018-09-19T07:48:39.151Z,5.40
2018-09-19T07:49:39.158Z,5.60
2018-09-19T07:50:39.204Z,5.40
2018-09-19T07:51:39.136Z,5.10
2018-09-19T07:52:39.125Z,5.70
2018-09-19T07:53:39.152Z,5.50
2018-09-19T07:54:39.128Z,5.30
2018-09-19T07:55:39.082Z,5.60
2018-09-19T07:56:39.083Z,5.40
2018-09-19T07:57:39.041Z,5.40
2018-09-19T07:58:39.060Z,5.70
2018-09-19T07:59:39.029Z,5.10
2018-09-19T08:00:39.161Z,5.00
2018-09-19T08:01:39.023Z,5.40
2018-09-19T08:02:39.009Z,5.20
2018-09-19T08:03:38.977Z,5.60
2018-09-19T08:04:38.967Z,6.10
2018-09-19T08:05:38.965Z,5.40
2018-09-19T08:06:38.943Z,5.40
2018-09-19T08:07:38.961Z,5.20
2018-09-19T08:08:38.932Z,5.80
2018-09-19T08:09:38.916Z,5.80
2018-09-19T08:10:38.906Z,5.60
2018-09-19T08:11:38.916Z,5.30
2018-09-19T08:12:38.880Z,5.30
2018-09-19T08:13:38.892Z,5.10
2018-09-19T08:14:38.893Z,5.60
2018-09-19T08:15:38.847Z,5.20
2018-09-19T08:16:38.889Z,5.60
2018-09-19T08:17:38.824Z,5.20
2018-09-19T08:18:38.844Z,5.90
2018-09-19T08:19:38.808Z,5.30
2018-09-19T08:20:38.794Z,5.30
2018-09-19T08:21:38.780Z,5.20
2018-09-19T08:22:38.851Z,5.30
2018-09-19T08:23:38.788Z,5.80
2018-09-19T08:24:38.747Z,6.20
2018-09-19T08:25:38.759Z,5.80
2018-09-19T08:26:38.730Z,6.00
2018-09-19T08:27:38.717Z,5.80
2018-09-19T08:28:38.714Z,5.50
2018-09-19T08:29:38.717Z,4.80
2018-09-19T08:30:38.679Z,5.30
2018-09-19T08:31:38.666Z,5.40
2018-09-19T08:32:38.667Z,5.10
2018-09-19T08:33:38.682Z,4.80
2018-09-19T08:34:38.645Z,5.00
2018-09-19T08:35:38.623Z,4.90
2018-09-19T08:36:38.612Z,5.40
2018-09-19T08:37:38.604Z,5.20
2018-09-19T08:38:38.615Z,4.30
2018-09-19T08:39:38.608Z,5.70
2018-09-19T08:40:38.594Z,5.20
2018-09-19T08:41:38.567Z,5.50
2018-09-19T08:42:38.576Z,5.00
2018-09-19T08:43:38.550Z,5.00
2018-09-19T08:44:38.525Z,5.00
2018-09-19T08:45:38.524Z,4.70
2018-09-19T08:46:38.536Z,4.50
2018-09-19T08:47:38.496Z,5.30
2018-09-19T08:48:38.491Z,5.00
2018-09-19T08:49:38.540Z,4.80
2018-09-19T08:50:38.521Z,4.60
2018-09-19T08:51:38.479Z,4.20
2018-09-19T08:52:38.440Z,5.00
2018-09-19T08:53:38.431Z,4.70
2018-09-19T08:54:38.440Z,4.80
2018-09-19T08:55:38.407Z,4.40
2018-09-19T08:56:38.397Z,4.60
2018-09-19T08:57:38.403Z,4.70
2018-09-19T08:58:38.377Z,4.00
2018-09-19T08:59:38.401Z,4.30
2018-09-19T09:00:38.348Z,4.50
2018-09-19T09:01:38.341Z,4.20
2018-09-19T09:02:38.352Z,4.60
2018-09-19T09:03:38.348Z,4.70
2018-09-19T09:04:38.317Z,5.70
2018-09-19T09:05:38.297Z,4.90
2018-09-19T09:06:38.285Z,5.00
2018-09-19T09:07:38.299Z,5.70
2018-09-19T09:08:38.293Z,5.20
2018-09-19T09:09:38.277Z,4.80
2018-09-19T09:10:38.248Z,6.10
2018-09-19T09:11:38.234Z,4.80
2018-09-19T09:12:38.321Z,4.70
2018-09-19T09:13:38.218Z,4.60
2018-09-19T09:14:38.200Z,4.60
2018-09-19T09:15:38.209Z,4.60
2018-09-19T09:16:38.180Z,4.70
2018-09-19T09:17:38.194Z,4.60
2018-09-19T09:18:38.155Z,4.70
2018-09-19T09:19:38.173Z,4.60
2018-09-19T09:20:38.140Z,4.50
2018-09-19T09:21:38.138Z,4.30
2018-09-19T09:22:38.126Z,4.30
2018-09-19T09:23:38.108Z,4.80
2018-09-19T09:24:38.117Z,5.00
2018-09-19T09:25:38.083Z,5.40
2018-09-19T09:26:38.115Z,4.70
2018-09-19T09:27:38.063Z,4.00
2018-09-19T09:28:38.134Z,4.40
2018-09-19T09:29:38.046Z,4.50
2018-09-19T09:30:38.032Z,4.00
2018-09-19T09:31:38.047Z,4.40
2018-09-19T09:32:38.010Z,4.30
2018-09-19T09:33:37.997Z,4.40
2018-09-19T09:34:37.995Z,4.10
2018-09-19T09:35:37.972Z,4.50
2018-09-19T09:36:37.995Z,4.60
2018-09-19T09:37:37.955Z,4.00
2018-09-19T09:38:37.945Z,4.00
2018-09-19T09:39:37.970Z,4.20
2018-09-19T09:40:38.061Z,4.30
2018-09-19T09:41:37.907Z,4.40
2018-09-19T09:42:37.930Z,4.50
2018-09-19T09:43:37.980Z,4.10
2018-09-19T09:44:37.926Z,4.50
2018-09-19T09:45:37.877Z,4.10
2018-09-19T09:46:37.857Z,4.10
2018-09-19T09:47:37.866Z,4.20
2018-09-19T09:48:37.837Z,4.60
2018-09-19T09:49:37.827Z,4.40
2018-09-19T09:50:37.827Z,4.40
2018-09-19T09:51:37.805Z,3.70
2018-09-19T09:52:37.837Z,4.40
2018-09-19T09:53:37.792Z,4.00
2018-09-19T09:54:37.775Z,3.60
2018-09-19T09:55:37.824Z,3.80
2018-09-19T09:56:37.762Z,4.10
2018-09-19T09:57:37.768Z,4.30
2018-09-19T09:58:37.768Z,3.80
2018-09-19T09:59:37.726Z,3.80
2018-09-19T10:00:37.705Z,4.40
2018-09-19T10:01:37.700Z,3.80
2018-09-19T10:02:37.709Z,4.00
2018-09-19T10:03:37.704Z,4.20
2018-09-19T10:04:37.666Z,3.80
2018-09-19T10:05:37.678Z,3.70
2018-09-19T10:06:37.642Z,3.60
2018-09-19T10:07:37.637Z,4.10
2018-09-19T10:08:37.652Z,3.50
2018-09-19T10:09:37.616Z,3.40
2018-09-19T10:10:37.617Z,3.70
2018-09-19T10:11:37.616Z,3.10
2018-09-19T10:12:37.579Z,3.50
2018-09-19T10:13:37.623Z,3.60
2018-09-19T10:14:37.581Z,3.50
2018-09-19T10:15:37.576Z,3.60
2018-09-19T10:16:37.562Z,3.80
2018-09-19T10:17:37.537Z,4.10
2018-09-19T10:18:37.514Z,3.70
2018-09-19T10:19:37.522Z,3.50
2018-09-19T10:20:37.508Z,3.40
2018-09-19T10:21:37.527Z,4.00
2018-09-19T10:22:37.476Z,4.30
2018-09-19T10:23:37.462Z,3.80
2018-09-19T10:24:37.465Z,4.00
2018-09-19T10:25:37.464Z,3.80
2018-09-19T10:26:37.443Z,3.60
2018-09-19T10:27:37.417Z,4.20
2018-09-19T10:28:37.436Z,3.90
2018-09-19T10:29:37.459Z,3.90
2018-09-19T10:30:37.430Z,4.10
2018-09-19T10:31:37.380Z,4.00
2018-09-19T10:32:37.402Z,4.40
2018-09-19T10:33:37.352Z,4.30
2018-09-19T10:34:37.343Z,4.30
2018-09-19T10:35:37.370Z,4.10
2018-09-19T10:36:37.320Z,4.20
2018-09-19T10:37:37.319Z,4.00
2018-09-19T10:38:37.318Z,4.60
2018-09-19T10:39:37.292Z,4.30
2018-09-19T10:40:37.311Z,4.00
2018-09-19T10:41:37.269Z,4.00
2018-09-19T10:42:37.260Z,4.20
2018-09-19T10:43:37.285Z,4.10
2018-09-19T10:44:37.239Z,4.00
2018-09-19T10:45:37.256Z,4.70
2018-09-19T10:46:37.218Z,4.00
2018-09-19T10:47:37.206Z,4.50
2018-09-19T10:48:37.217Z,4.50
2018-09-19T10:49:37.272Z,4.10
2018-09-19T10:50:37.211Z,4.20
2018-09-19T10:51:37.165Z,4.40
2018-09-19T10:52:37.149Z,4.30
2018-09-19T10:53:37.145Z,4.00
2018-09-19T10:54:37.129Z,4.50
2018-09-19T10:55:37.144Z,4.40
2018-09-19T10:56:37.112Z,4.30
2018-09-19T10:57:37.109Z,4.30
2018-09-19T10:58:37.086Z,4.40
2018-09-19T10:59:37.077Z,4.00
2018-09-19T11:00:37.111Z,3.90
2018-09-19T11:01:37.093Z,4.30
2018-09-19T11:02:37.046Z,4.30
2018-09-19T11:03:37.034Z,3.80
2018-09-19T11:04:37.022Z,3.80
2018-09-19T11:05:37.051Z,4.00
2018-09-19T11:06:37.010Z,4.40
2018-09-19T11:07:37.000Z,4.40
2018-09-19T11:08:36.984Z,4.00
2018-09-19T11:09:36.969Z,3.70
2018-09-19T11:10:36.998Z,4.10
2018-09-19T11:11:36.961Z,3.30
2018-09-19T11:12:36.938Z,3.60
2018-09-19T11:13:36.937Z,3.50
2018-09-19T11:14:36.920Z,3.30
2018-09-19T11:15:36.926Z,3.40
2018-09-19T11:16:36.904Z,3.30
2018-09-19T11:17:36.896Z,2.90
2018-09-19T11:18:36.881Z,3.30
2018-09-19T11:19:36.884Z,3.50
2018-09-19T11:20:36.852Z,3.20
2018-09-19T11:21:36.883Z,3.20
2018-09-19T11:22:36.832Z,3.40
2018-09-19T11:23:36.821Z,2.80
2018-09-19T11:24:36.814Z,3.10
2018-09-19T11:25:36.821Z,2.90
2018-09-19T11:26:36.830Z,3.10
2018-09-19T11:27:36.777Z,2.80
2018-09-19T11:28:36.767Z,2.90
2018-09-19T11:29:36.757Z,3.10
2018-09-19T11:30:36.755Z,3.30
2018-09-19T11:31:36.764Z,3.20
2018-09-19T11:32:36.759Z,3.40
2018-09-19T11:33:36.750Z,3.20
2018-09-19T11:34:36.703Z,3.20
2018-09-19T11:35:36.693Z,3.20
2018-09-19T11:36:36.705Z,3.20
2018-09-19T11:37:36.686Z,4.70
2018-09-19T11:38:36.695Z,3.80
2018-09-19T11:39:36.653Z,2.80
2018-09-19T11:40:36.662Z,3.00
2018-09-19T11:41:36.634Z,2.80
2018-09-19T11:42:36.622Z,2.80
2018-09-19T11:43:36.625Z,2.90
2018-09-19T11:44:36.604Z,3.20
2018-09-19T11:45:36.652Z,3.30
2018-09-19T11:46:36.577Z,3.20
2018-09-19T11:47:36.566Z,3.00
2018-09-19T11:48:36.620Z,3.30
2018-09-19T11:49:36.573Z,3.10
2018-09-19T11:50:36.564Z,3.20
2018-09-19T11:51:36.536Z,3.20
2018-09-19T11:52:36.514Z,3.10
2018-09-19T11:53:36.504Z,3.10
2018-09-19T11:54:36.494Z,3.10
2018-09-19T11:55:36.508Z,3.60
2018-09-19T11:56:36.474Z,3.70
2018-09-19T11:57:36.468Z,6.30
2018-09-19T11:58:36.456Z,3.00
2018-09-19T11:59:36.468Z,3.10
2018-09-19T12:00:36.436Z,2.90
2018-09-19T12:01:36.431Z,2.80
2018-09-19T12:02:36.408Z,3.10
2018-09-19T12:03:36.410Z,3.00
2018-09-19T12:04:36.409Z,2.70
2018-09-19T12:05:36.377Z,3.90
2018-09-19T12:06:36.373Z,3.00
2018-09-19T12:07:36.362Z,4.00
2018-09-19T12:08:36.358Z,2.50
2018-09-19T12:09:36.367Z,3.30
2018-09-19T12:10:36.325Z,3.20
2018-09-19T12:11:36.317Z,2.70
2018-09-19T12:12:36.309Z,2.80
2018-09-19T12:13:36.294Z,2.90
2018-09-19T12:14:36.314Z,3.30
2018-09-19T12:15:36.297Z,2.80
2018-09-19T12:16:36.289Z,3.30
2018-09-19T12:17:36.250Z,3.50
2018-09-19T12:18:36.250Z,3.20
2018-09-19T12:19:36.297Z,2.90
2018-09-19T12:20:36.224Z,2.90
2018-09-19T12:21:36.240Z,2.80
2018-09-19T12:22:36.202Z,3.20
2018-09-19T12:23:36.191Z,2.90
2018-09-19T12:24:36.187Z,3.00
2018-09-19T12:25:36.206Z,3.00
2018-09-19T12:26:36.243Z,2.90
2018-09-19T12:27:36.149Z,2.80
2018-09-19T12:28:36.137Z,2.80
2018-09-19T12:29:36.126Z,2.80
2018-09-19T12:30:36.137Z,3.30
2018-09-19T12:31:36.134Z,3.00
2018-09-19T12:32:36.095Z,4.60
2018-09-19T12:33:36.082Z,2.90
2018-09-19T12:34:36.069Z,3.10
2018-09-19T12:35:36.067Z,3.30
2018-09-19T12:36:36.080Z,3.20
2018-09-19T12:37:36.066Z,2.90
2018-09-19T12:38:36.031Z,3.00
2018-09-19T12:39:36.039Z,3.10
2018-09-19T12:40:36.009Z,2.90
2018-09-19T12:41:36.122Z,2.60
2018-09-19T12:42:35.995Z,2.80
2018-09-19T12:43:35.975Z,3.30
2018-09-19T12:44:35.969Z,2.70
2018-09-19T12:45:35.954Z,2.70
2018-09-19T12:46:35.965Z,2.80
2018-09-19T12:47:35.939Z,2.80
2018-09-19T12:48:35.934Z,2.60
2018-09-19T12:49:35.937Z,2.80
2018-09-19T12:50:35.904Z,2.90
2018-09-19T12:51:35.896Z,3.20
2018-09-19T12:52:35.879Z,3.40
2018-09-19T12:53:35.871Z,3.70
2018-09-19T12:54:35.884Z,3.50
2018-09-19T12:55:35.873Z,3.30
2018-09-19T12:56:35.835Z,2.90
2018-09-19T12:57:35.840Z,2.80
2018-09-19T12:58:35.814Z,2.90
2018-09-19T12:59:35.829Z,3.00
2018-09-19T13:00:35.802Z,3.10
2018-09-19T13:01:35.814Z,3.10
2018-09-19T13:02:35.772Z,3.50
2018-09-19T13:03:35.766Z,3.00
2018-09-19T13:04:35.760Z,3.20
2018-09-19T13:05:35.750Z,3.30
2018-09-19T13:06:35.758Z,3.00
2018-09-19T13:07:35.722Z,3.10
2018-09-19T13:08:35.763Z,3.40
2018-09-19T13:09:35.719Z,3.20
2018-09-19T13:10:35.689Z,3.30
2018-09-19T13:11:35.693Z,3.00
2018-09-19T13:12:35.674Z,3.30
2018-09-19T13:13:35.656Z,3.20
2018-09-19T13:14:35.665Z,3.40
2018-09-19T13:15:35.658Z,3.20
2018-09-19T13:16:35.622Z,3.30
2018-09-19T13:17:35.616Z,3.70
2018-09-19T13:18:35.605Z,3.30
2018-09-19T13:19:35.591Z,3.40